Saint Joe, Arkansas
Current Conditions -  °F | °C
As of 9:55 AM on Thursday 27 Nov 2014 (Local Time) from KFLP Reporting Station
Clear Clear  
Wind Chill: 31°   Ceiling: Unl
Heat Index: 37°   Visibility: 10mi
Dew Point: 23°   Wind: 8mph
Humidity: 56%   Direction: 280°W
Pressure: 30.53"   Gusts: NA
Location:  36.03°N, 92.8°W
Report Text: KFLP 271555Z AUTO 28007KT 10SM CLR 03/M05 A3053 RMK AO1
Loading
Personal Weather Stations






























Interactive Weather Map New forecast layout! Learn more

10-Day Weather Forecast

Advertisements
Track Severe Weather on mobile